Time;durP1;ratioP1;P1;durP2;ratioP2;P2;SDS_P1;SDS_P2;PMS_P1;PMS_P2;Temp;Humidity;BMP_temperature;BMP_pressure;BME280_temperature;BME280_humidity;BME280_pressure;Samples;Min_cycle;Max_cycle;Signal;HPM_P1;HPM_P2
2021/06/30 00:02:37;;;;;;;4.88;2.08;;;17.70;99.90;;;;;;5016881;28;20140;-64
2021/06/30 00:05:10;;;;;;;2.63;2.22;;;17.70;99.90;;;;;;5020117;28;20052;-66
2021/06/30 00:07:41;;;;;;;2.20;2.10;;;17.60;99.90;;;;;;5014638;28;20056;-68
2021/06/30 00:10:15;;;;;;;2.53;1.92;;;17.60;99.90;;;;;;5021430;28;20045;-65
2021/06/30 00:12:47;;;;;;;2.45;1.95;;;17.60;99.90;;;;;;5019701;28;20055;-64
2021/06/30 00:15:24;;;;;;;1.60;1.50;;;17.50;99.90;;;;;;5021078;28;20045;-68
2021/06/30 00:17:57;;;;;;;1.38;1.25;;;17.50;99.90;;;;;;5018033;28;20462;-66
2021/06/30 00:20:29;;;;;;;2.03;1.73;;;17.50;99.90;;;;;;5019954;28;20053;-67
2021/06/30 00:23:01;;;;;;;3.28;1.70;;;17.40;99.90;;;;;;5017534;28;20040;-64
2021/06/30 00:25:33;;;;;;;3.53;1.98;;;17.40;99.90;;;;;;5018844;28;20388;-66
2021/06/30 00:28:05;;;;;;;3.60;1.95;;;17.40;99.90;;;;;;5015092;28;20787;-65
2021/06/30 00:30:38;;;;;;;1.73;1.55;;;17.40;99.90;;;;;;5021911;28;20557;-65
2021/06/30 00:33:10;;;;;;;5.03;1.88;;;17.40;99.90;;;;;;5020179;28;20049;-66
2021/06/30 00:35:42;;;;;;;2.08;1.40;;;17.40;99.90;;;;;;5019320;28;21384;-66
2021/06/30 00:38:15;;;;;;;1.45;1.35;;;17.30;99.90;;;;;;5018896;28;21016;-65
2021/06/30 00:40:47;;;;;;;4.15;2.22;;;17.30;99.90;;;;;;5020155;28;20160;-66
2021/06/30 00:43:19;;;;;;;1.55;1.40;;;17.20;99.90;;;;;;5019861;28;20037;-66
2021/06/30 00:45:51;;;;;;;1.80;1.70;;;17.20;99.90;;;;;;5016624;28;20158;-66
2021/06/30 00:48:23;;;;;;;1.50;1.40;;;17.20;99.90;;;;;;5014394;28;20068;-64
2021/06/30 00:50:55;;;;;;;2.53;1.77;;;17.10;99.90;;;;;;5019510;28;20499;-67
2021/06/30 00:53:27;;;;;;;2.28;2.00;;;17.10;99.90;;;;;;5019359;28;20045;-66
2021/06/30 00:55:59;;;;;;;2.50;1.77;;;17.00;99.90;;;;;;5017136;28;20056;-66
2021/06/30 00:58:30;;;;;;;2.03;1.80;;;17.00;99.90;;;;;;5020306;28;20049;-66
2021/06/30 01:01:02;;;;;;;1.52;1.27;;;16.90;99.90;;;;;;5020483;28;20041;-66
2021/06/30 01:03:35;;;;;;;3.47;1.63;;;16.80;99.90;;;;;;5018792;28;20045;-66
2021/06/30 01:06:07;;;;;;;3.28;1.98;;;16.80;99.90;;;;;;5019792;28;20411;-65
2021/06/30 01:08:39;;;;;;;2.85;1.52;;;16.70;99.90;;;;;;5017729;28;20387;-65
2021/06/30 01:11:12;;;;;;;5.43;1.90;;;16.70;99.90;;;;;;5018885;28;20049;-67
2021/06/30 01:13:45;;;;;;;2.30;1.52;;;16.70;99.90;;;;;;5017074;28;20049;-64
2021/06/30 01:16:16;;;;;;;1.73;1.63;;;16.60;99.90;;;;;;5019665;28;21442;-64
2021/06/30 01:18:48;;;;;;;3.10;1.75;;;16.60;99.90;;;;;;5018837;28;20415;-64
2021/06/30 01:21:20;;;;;;;1.67;1.58;;;16.50;99.90;;;;;;5018450;28;20058;-65
2021/06/30 01:23:52;;;;;;;3.72;1.55;;;16.50;99.90;;;;;;5017127;28;20045;-66
2021/06/30 01:26:24;;;;;;;2.55;1.65;;;16.40;99.90;;;;;;5018238;28;20045;-66
2021/06/30 01:28:56;;;;;;;2.10;1.95;;;16.40;99.90;;;;;;5017237;28;20053;-67
2021/06/30 01:31:28;;;;;;;2.53;2.28;;;16.30;99.90;;;;;;5020073;28;20052;-67
2021/06/30 01:34:00;;;;;;;3.65;2.00;;;16.30;99.90;;;;;;5017798;28;20052;-66
2021/06/30 01:36:47;;;;;;;2.22;2.03;;;16.30;99.90;;;;;;5020594;28;20421;-66
2021/06/30 01:39:23;;;;;;;5.68;1.67;;;16.30;99.90;;;;;;5016834;28;20081;-65
2021/06/30 01:41:55;;;;;;;1.88;1.77;;;16.20;99.90;;;;;;5016762;28;20049;-66
2021/06/30 01:44:27;;;;;;;1.70;1.40;;;16.20;99.90;;;;;;5019082;28;20576;-67
2021/06/30 01:46:58;;;;;;;1.95;1.77;;;16.20;99.90;;;;;;5016933;28;20060;-68
2021/06/30 01:49:30;;;;;;;2.05;1.45;;;16.20;99.90;;;;;;5019494;28;20369;-66
2021/06/30 01:52:02;;;;;;;2.05;1.95;;;16.10;99.90;;;;;;5015793;28;20041;-64
2021/06/30 01:54:34;;;;;;;2.40;1.83;;;16.10;99.90;;;;;;5016940;28;20044;-67
2021/06/30 01:57:06;;;;;;;2.97;1.77;;;16.10;99.90;;;;;;5016205;28;20468;-64
2021/06/30 01:59:38;;;;;;;2.00;1.80;;;16.10;99.90;;;;;;5017496;28;20155;-65
2021/06/30 02:02:10;;;;;;;3.78;2.10;;;16.00;99.90;;;;;;5015566;28;20060;-67
2021/06/30 02:04:48;;;;;;;2.85;2.17;;;16.10;99.90;;;;;;5017658;28;20042;-67
2021/06/30 02:07:20;;;;;;;2.80;2.28;;;16.00;99.90;;;;;;5017748;28;20052;-66
2021/06/30 02:09:52;;;;;;;1.70;1.60;;;16.00;99.90;;;;;;5017416;28;20049;-65
2021/06/30 02:12:24;;;;;;;1.63;1.42;;;16.00;99.90;;;;;;5018698;28;20057;-68
2021/06/30 02:14:56;;;;;;;2.38;2.17;;;15.90;99.90;;;;;;5016959;28;20048;-66
2021/06/30 02:17:27;;;;;;;3.10;2.10;;;15.90;99.90;;;;;;5018182;28;20045;-65
2021/06/30 02:19:59;;;;;;;3.03;2.10;;;15.90;99.90;;;;;;5015713;28;22489;-66
2021/06/30 02:22:32;;;;;;;2.63;1.70;;;15.90;99.90;;;;;;5015011;28;20080;-68
2021/06/30 02:25:07;;;;;;;4.53;2.22;;;15.90;99.90;;;;;;5014186;28;20045;-67
2021/06/30 02:27:39;;;;;;;2.17;2.03;;;15.80;99.90;;;;;;5014189;28;20053;-64
2021/06/30 02:30:24;;;;;;;2.42;2.08;;;15.80;99.90;;;;;;5017360;28;20049;-67
2021/06/30 02:32:57;;;;;;;2.22;2.03;;;15.80;99.90;;;;;;5021157;28;20411;-68
2021/06/30 02:35:29;;;;;;;2.60;2.03;;;15.80;99.90;;;;;;5018947;28;20045;-68
2021/06/30 02:38:02;;;;;;;2.03;1.85;;;15.80;99.90;;;;;;5018692;28;20037;-66
2021/06/30 02:40:34;;;;;;;4.22;2.13;;;15.80;99.90;;;;;;5019286;28;20067;-66
2021/06/30 02:43:06;;;;;;;3.15;2.33;;;15.80;99.90;;;;;;5020295;28;20418;-67
2021/06/30 02:45:38;;;;;;;4.55;3.05;;;15.80;99.90;;;;;;5017175;28;20090;-66
2021/06/30 02:48:10;;;;;;;2.45;1.92;;;15.80;99.90;;;;;;5016892;28;20048;-65
2021/06/30 02:50:42;;;;;;;2.10;1.88;;;15.80;99.90;;;;;;5016618;28;20505;-66
2021/06/30 02:53:14;;;;;;;3.97;2.78;;;15.80;99.90;;;;;;5018428;28;20099;-66
2021/06/30 02:55:45;;;;;;;3.50;2.83;;;15.80;99.90;;;;;;5016101;28;21132;-64
2021/06/30 02:58:17;;;;;;;3.22;2.45;;;15.90;99.90;;;;;;5018051;28;20289;-64
2021/06/30 03:00:49;;;;;;;2.22;1.98;;;15.90;99.90;;;;;;5017289;28;20041;-65
2021/06/30 03:03:21;;;;;;;4.40;2.75;;;15.90;99.90;;;;;;5018520;28;20105;-65
2021/06/30 03:05:53;;;;;;;5.35;2.10;;;15.90;99.90;;;;;;5018145;28;20812;-64
2021/06/30 03:08:25;;;;;;;2.88;1.98;;;15.90;99.90;;;;;;5019344;28;20368;-66
2021/06/30 03:10:57;;;;;;;3.58;2.40;;;15.90;99.90;;;;;;5019707;28;20061;-67
2021/06/30 03:13:29;;;;;;;3.15;2.72;;;16.00;99.90;;;;;;5018685;28;20478;-67
2021/06/30 03:16:01;;;;;;;3.08;2.78;;;16.00;99.90;;;;;;5015785;28;20386;-67
2021/06/30 03:18:33;;;;;;;11.02;3.45;;;16.00;99.90;;;;;;5017391;28;20063;-65
2021/06/30 03:21:05;;;;;;;2.97;2.67;;;16.10;99.90;;;;;;5017371;28;20511;-66
2021/06/30 03:23:37;;;;;;;3.85;2.45;;;16.10;99.90;;;;;;5016801;28;20139;-66
2021/06/30 03:26:09;;;;;;;2.33;2.13;;;16.10;99.90;;;;;;5016717;28;20046;-66
2021/06/30 03:28:41;;;;;;;2.42;2.22;;;16.10;99.90;;;;;;5018922;28;20139;-66
2021/06/30 03:31:14;;;;;;;4.65;2.17;;;16.20;99.90;;;;;;5018542;28;20050;-67
2021/06/30 03:33:45;;;;;;;2.30;2.10;;;16.20;99.90;;;;;;5014086;28;20122;-64
2021/06/30 03:36:17;;;;;;;3.50;2.55;;;16.20;99.90;;;;;;5015956;28;20056;-65
2021/06/30 03:38:49;;;;;;;1.85;1.75;;;16.20;99.90;;;;;;5019073;28;20045;-65
2021/06/30 03:41:21;;;;;;;3.67;3.13;;;16.30;99.90;;;;;;5017832;28;20059;-64
2021/06/30 03:43:53;;;;;;;3.70;2.00;;;16.30;99.90;;;;;;5017649;28;20059;-66
2021/06/30 03:46:25;;;;;;;3.25;2.05;;;16.40;99.90;;;;;;5016441;28;20488;-64
2021/06/30 03:48:56;;;;;;;4.05;1.98;;;16.40;99.90;;;;;;5016417;28;20136;-67
2021/06/30 03:51:28;;;;;;;4.00;2.70;;;16.50;99.90;;;;;;5016235;28;20338;-66
2021/06/30 03:54:00;;;;;;;4.65;3.15;;;16.50;99.90;;;;;;5014612;28;20327;-64
2021/06/30 03:56:32;;;;;;;2.42;2.05;;;16.60;99.90;;;;;;5015636;28;20052;-67
2021/06/30 03:59:04;;;;;;;3.85;2.65;;;16.60;99.90;;;;;;5017645;28;20127;-66
2021/06/30 04:01:36;;;;;;;4.57;2.45;;;16.70;99.90;;;;;;5014569;28;20050;-64
2021/06/30 04:04:12;;;;;;;2.88;2.10;;;16.70;99.90;;;;;;5016456;28;20451;-68
2021/06/30 04:06:44;;;;;;;7.22;3.05;;;16.80;99.90;;;;;;5015723;28;20061;-66
2021/06/30 04:09:16;;;;;;;4.63;2.03;;;16.90;99.90;;;;;;5016769;28;20056;-66
2021/06/30 04:11:48;;;;;;;2.38;2.15;;;16.90;99.90;;;;;;5013898;28;20050;-64
2021/06/30 04:14:20;;;;;;;3.55;1.77;;;17.00;99.90;;;;;;5019587;28;20146;-66
2021/06/30 04:16:51;;;;;;;2.85;2.40;;;17.00;99.90;;;;;;5018322;28;20145;-66
2021/06/30 04:19:23;;;;;;;2.10;1.90;;;17.10;99.90;;;;;;5050380;28;20045;-66
2021/06/30 04:21:56;;;;;;;3.20;2.05;;;17.20;99.90;;;;;;5016205;28;20455;-66
2021/06/30 04:24:28;;;;;;;3.67;2.40;;;17.30;99.90;;;;;;5018661;28;20109;-67
2021/06/30 04:26:59;;;;;;;4.22;2.20;;;17.30;99.90;;;;;;5017888;28;20068;-63
2021/06/30 04:29:31;;;;;;;3.35;2.10;;;17.40;99.90;;;;;;5018935;28;20079;-67
2021/06/30 04:32:04;;;;;;;1.95;1.80;;;17.50;99.90;;;;;;5015269;28;20064;-67
2021/06/30 04:34:36;;;;;;;1.98;1.52;;;17.60;99.90;;;;;;5047420;28;20529;-67
2021/06/30 04:37:08;;;;;;;3.75;2.47;;;17.70;99.90;;;;;;5011269;28;20049;-65
2021/06/30 04:39:40;;;;;;;3.22;1.45;;;17.80;99.90;;;;;;5015542;28;20148;-67
2021/06/30 04:42:12;;;;;;;4.38;2.15;;;17.90;99.90;;;;;;5012611;28;20049;-65
2021/06/30 04:44:44;;;;;;;2.03;1.83;;;18.00;99.90;;;;;;5015879;28;20139;-63
2021/06/30 04:47:16;;;;;;;4.70;2.03;;;18.20;99.90;;;;;;5014236;28;20379;-66
2021/06/30 04:49:47;;;;;;;3.17;1.67;;;18.30;99.90;;;;;;5017227;28;20067;-66
2021/06/30 04:52:19;;;;;;;1.58;1.42;;;18.30;99.90;;;;;;5016030;28;20491;-65
2021/06/30 04:54:51;;;;;;;3.42;2.08;;;18.50;99.90;;;;;;5020109;28;20048;-64
2021/06/30 04:57:23;;;;;;;3.40;1.85;;;18.60;99.90;;;;;;5017800;28;20052;-65
2021/06/30 04:59:55;;;;;;;3.15;2.05;;;18.70;99.90;;;;;;5017943;28;20492;-67
2021/06/30 05:02:27;;;;;;;2.45;1.98;;;18.80;99.90;;;;;;5015885;28;20055;-65
2021/06/30 05:04:59;;;;;;;1.95;1.75;;;19.00;99.90;;;;;;5020053;28;20685;-67
2021/06/30 05:07:31;;;;;;;3.25;1.88;;;19.10;99.90;;;;;;5019113;28;20442;-67
2021/06/30 05:10:03;;;;;;;2.00;1.80;;;19.20;99.90;;;;;;5020100;28;20048;-65
2021/06/30 05:12:35;;;;;;;1.90;1.67;;;19.20;99.90;;;;;;5019535;28;20073;-66
2021/06/30 05:15:07;;;;;;;3.42;2.00;;;19.40;99.90;;;;;;5020241;28;20407;-65
2021/06/30 05:17:39;;;;;;;1.50;1.23;;;19.50;99.90;;;;;;5017739;28;20045;-66
2021/06/30 05:20:12;;;;;;;2.92;1.33;;;19.50;99.90;;;;;;5018213;28;20041;-65
2021/06/30 05:22:44;;;;;;;2.22;1.63;;;19.60;99.90;;;;;;5020287;28;20056;-66
2021/06/30 05:25:16;;;;;;;1.85;1.25;;;19.70;99.90;;;;;;5019635;28;20040;-67
2021/06/30 05:27:48;;;;;;;2.03;1.92;;;19.80;99.90;;;;;;5017878;28;20772;-66
2021/06/30 05:30:20;;;;;;;1.50;1.40;;;20.00;99.90;;;;;;5019269;28;20037;-65
2021/06/30 05:32:51;;;;;;;1.75;1.50;;;20.10;99.90;;;;;;5036006;28;20045;-65
2021/06/30 05:35:23;;;;;;;2.33;1.50;;;20.20;99.90;;;;;;5020248;28;20084;-64
2021/06/30 05:37:55;;;;;;;3.47;1.48;;;20.30;99.90;;;;;;5018749;28;20119;-64
2021/06/30 05:40:27;;;;;;;2.17;1.98;;;20.40;99.90;;;;;;5013524;28;20056;-65
2021/06/30 05:42:59;;;;;;;2.67;1.23;;;20.40;99.90;;;;;;5018536;28;20050;-67
2021/06/30 05:45:31;;;;;;;1.45;1.30;;;20.50;99.90;;;;;;5021004;28;20064;-64
2021/06/30 05:48:03;;;;;;;2.90;1.20;;;20.60;99.90;;;;;;5017161;28;20056;-66
2021/06/30 05:50:36;;;;;;;5.00;1.52;;;20.60;99.90;;;;;;5019888;28;20130;-64
2021/06/30 05:53:08;;;;;;;1.92;1.30;;;20.70;99.90;;;;;;5019291;28;20109;-69
2021/06/30 05:55:39;;;;;;;1.63;1.45;;;20.80;99.90;;;;;;5017879;28;20041;-67
2021/06/30 05:58:11;;;;;;;1.42;1.33;;;20.80;99.90;;;;;;5018999;28;20057;-65
2021/06/30 06:00:43;;;;;;;2.22;1.95;;;20.90;99.90;;;;;;5020090;28;20367;-64
2021/06/30 06:03:16;;;;;;;2.53;1.58;;;20.90;99.90;;;;;;5019125;28;20049;-67
2021/06/30 06:05:48;;;;;;;2.35;1.90;;;21.00;99.90;;;;;;5018809;28;20094;-69
2021/06/30 06:08:20;;;;;;;1.40;0.90;;;21.10;99.90;;;;;;5015555;28;20129;-64
2021/06/30 06:11:01;;;;;;;1.31;1.21;;;21.10;99.90;;;;;;4884277;28;10000676;-66
2021/06/30 06:13:32;;;;;;;1.90;1.65;;;21.10;99.90;;;;;;2077244;28;10002784;-68
2021/06/30 06:16:04;;;;;;;2.03;1.58;;;21.20;99.90;;;;;;5018080;28;20051;-68
2021/06/30 06:18:36;;;;;;;1.60;1.40;;;21.20;99.90;;;;;;5018117;28;20037;-66
2021/06/30 06:21:09;;;;;;;1.20;1.02;;;21.30;99.90;;;;;;5017916;28;20399;-69
2021/06/30 06:23:41;;;;;;;2.38;1.42;;;21.40;99.90;;;;;;5017068;28;20041;-68
2021/06/30 06:26:14;;;;;;;1.30;1.20;;;21.40;99.90;;;;;;5017529;28;20053;-64
2021/06/30 06:28:47;;;;;;;2.45;1.55;;;21.40;99.90;;;;;;5014596;28;20053;-68
2021/06/30 06:31:20;;;;;;;1.50;1.40;;;21.50;99.90;;;;;;5017594;28;20144;-68
2021/06/30 06:33:51;;;;;;;1.60;1.25;;;21.60;99.90;;;;;;5017270;28;20044;-68
2021/06/30 06:36:24;;;;;;;1.38;1.27;;;21.60;99.90;;;;;;5015899;28;20049;-65
2021/06/30 06:38:56;;;;;;;1.42;1.30;;;21.60;99.90;;;;;;5020124;28;20045;-67
2021/06/30 06:41:28;;;;;;;2.63;2.33;;;21.70;99.90;;;;;;5017897;28;20038;-65
2021/06/30 06:44:00;;;;;;;8.10;1.70;;;21.80;99.90;;;;;;5016539;28;20045;-68
2021/06/30 06:46:31;;;;;;;2.78;1.65;;;21.90;99.90;;;;;;5017048;28;20037;-68
2021/06/30 06:49:08;;;;;;;2.75;1.90;;;22.00;99.90;;;;;;5019203;28;20045;-67
2021/06/30 06:51:40;;;;;;;2.13;1.92;;;22.00;99.90;;;;;;5013860;28;20076;-67
2021/06/30 06:54:12;;;;;;;1.60;1.50;;;22.10;99.90;;;;;;5016124;28;20049;-68
2021/06/30 06:56:44;;;;;;;3.67;1.85;;;22.10;99.90;;;;;;5017588;28;20063;-65
2021/06/30 06:59:16;;;;;;;2.13;2.00;;;22.20;99.90;;;;;;5017206;28;20061;-64
2021/06/30 07:01:48;;;;;;;4.30;1.75;;;22.20;99.90;;;;;;5016869;28;20116;-68
2021/06/30 07:04:19;;;;;;;2.45;1.80;;;22.20;99.90;;;;;;5018088;28;20048;-66
2021/06/30 07:06:52;;;;;;;1.92;1.83;;;22.20;99.90;;;;;;5016460;28;20376;-66
2021/06/30 07:09:24;;;;;;;2.35;1.67;;;22.30;99.90;;;;;;5016970;28;20120;-65
2021/06/30 07:11:55;;;;;;;1.73;1.63;;;22.30;99.90;;;;;;5016530;28;20041;-63
2021/06/30 07:14:27;;;;;;;1.80;1.70;;;22.50;99.90;;;;;;5012745;28;20088;-67
2021/06/30 07:16:59;;;;;;;1.58;1.30;;;22.60;99.90;;;;;;5016957;28;20051;-64
2021/06/30 07:19:31;;;;;;;3.85;1.70;;;22.80;99.90;;;;;;5017294;28;20056;-65
2021/06/30 07:22:03;;;;;;;3.92;1.85;;;22.80;99.90;;;;;;5015825;28;20503;-66
2021/06/30 07:24:35;;;;;;;2.22;2.03;;;22.90;99.90;;;;;;5018148;28;20946;-67
2021/06/30 07:27:07;;;;;;;1.85;1.75;;;23.00;99.90;;;;;;5015653;28;20042;-65
2021/06/30 07:29:40;;;;;;;3.08;2.78;;;23.10;99.90;;;;;;5015016;28;20088;-66
2021/06/30 07:32:12;;;;;;;2.17;1.98;;;23.00;99.90;;;;;;5013481;28;20061;-67
2021/06/30 07:34:44;;;;;;;5.22;2.65;;;22.60;99.90;;;;;;5017577;28;20057;-65
2021/06/30 07:37:16;;;;;;;2.45;1.85;;;22.50;99.90;;;;;;5014016;28;20660;-67
2021/06/30 07:39:47;;;;;;;3.80;2.58;;;22.40;99.90;;;;;;5016553;28;20689;-67
2021/06/30 07:42:19;;;;;;;2.33;1.98;;;22.20;99.90;;;;;;5017479;28;20488;-64
2021/06/30 07:44:51;;;;;;;3.65;2.67;;;22.20;99.90;;;;;;5018610;28;20081;-64
2021/06/30 07:47:18;;;;;;;4.35;2.55;;;22.20;99.90;;;;;;5016803;28;20073;-65
2021/06/30 07:49:45;;;;;;;3.45;2.20;;;22.30;99.90;;;;;;5017197;28;20101;-66
2021/06/30 07:52:12;;;;;;;2.38;2.17;;;22.30;99.90;;;;;;5016637;28;20757;-65
2021/06/30 07:54:39;;;;;;;4.97;3.33;;;22.30;99.90;;;;;;5017086;28;20053;-65
2021/06/30 07:57:06;;;;;;;5.75;4.65;;;22.40;99.90;;;;;;5017404;28;20149;-65
2021/06/30 07:59:33;;;;;;;6.18;4.15;;;22.30;99.90;;;;;;5016328;28;20053;-66
2021/06/30 08:02:00;;;;;;;6.28;4.22;;;22.30;99.90;;;;;;5013054;28;20083;-67
2021/06/30 08:04:27;;;;;;;7.10;4.75;;;22.30;99.90;;;;;;5012940;28;20049;-67
2021/06/30 08:06:54;;;;;;;7.68;4.88;;;22.30;99.90;;;;;;5013392;28;20152;-66
2021/06/30 08:09:21;;;;;;;5.10;4.50;;;22.40;99.90;;;;;;5014468;28;20116;-66
2021/06/30 08:11:58;;;;;;;11.43;5.60;;;22.50;99.90;;;;;;5011843;28;20103;-64
2021/06/30 08:14:25;;;;;;;5.05;4.50;;;22.60;99.90;;;;;;5015102;28;20148;-66
2021/06/30 08:16:52;;;;;;;4.47;4.07;;;22.70;99.90;;;;;;5015487;28;20920;-64
2021/06/30 08:19:19;;;;;;;7.57;5.43;;;22.70;99.90;;;;;;5015032;28;20190;-65
2021/06/30 08:21:46;;;;;;;6.72;4.93;;;22.80;99.90;;;;;;5012764;28;20077;-68
2021/06/30 08:24:14;;;;;;;9.07;5.32;;;22.80;99.90;;;;;;5021964;28;20138;-64
2021/06/30 08:26:41;;;;;;;5.82;5.30;;;22.80;99.90;;;;;;5019607;28;20479;-67
2021/06/30 08:29:08;;;;;;;9.25;6.30;;;22.70;99.90;;;;;;5018623;28;20123;-66
2021/06/30 08:31:35;;;;;;;9.25;6.40;;;22.70;99.90;;;;;;5018322;28;20171;-64
2021/06/30 08:34:02;;;;;;;6.70;6.07;;;22.60;99.90;;;;;;5016730;28;20698;-64
2021/06/30 08:36:29;;;;;;;8.63;5.75;;;22.70;99.90;;;;;;5018459;28;20504;-63
2021/06/30 08:38:56;;;;;;;9.35;6.28;;;22.70;99.90;;;;;;5019176;28;21553;-66
2021/06/30 08:41:23;;;;;;;5.85;5.35;;;22.60;99.90;;;;;;5021762;28;20037;-65
2021/06/30 08:43:50;;;;;;;8.65;6.20;;;22.60;99.90;;;;;;5018148;28;20723;-66
2021/06/30 08:46:21;;;;;;;10.25;7.07;;;22.50;99.90;;;;;;5021477;28;20073;-67
2021/06/30 08:48:55;;;;;;;9.18;5.88;;;22.50;99.90;;;;;;5021233;28;20038;-66
2021/06/30 08:51:25;;;;;;;12.85;7.10;;;22.40;99.90;;;;;;5020000;28;20376;-64
2021/06/30 08:53:55;;;;;;;9.90;6.80;;;22.30;99.90;;;;;;5017330;28;20609;-65
2021/06/30 08:56:32;;;;;;;16.00;7.30;;;22.20;99.90;;;;;;5019164;28;20501;-66
2021/06/30 08:59:00;;;;;;;8.80;7.25;;;22.20;99.90;;;;;;5021267;28;20103;-67
2021/06/30 09:01:29;;;;;;;14.88;8.43;;;22.20;99.90;;;;;;5019071;28;20107;-63
2021/06/30 09:03:57;;;;;;;9.68;7.95;;;22.20;99.90;;;;;;5020182;28;20155;-67
2021/06/30 09:06:25;;;;;;;8.60;7.38;;;22.30;99.90;;;;;;5017402;28;20080;-68
2021/06/30 09:08:52;;;;;;;9.45;7.75;;;22.30;99.90;;;;;;5020847;28;20538;-68
2021/06/30 09:11:21;;;;;;;10.25;8.18;;;22.30;99.90;;;;;;5018971;28;20164;-65
2021/06/30 09:14:07;;;;;;;16.58;10.38;;;22.30;99.90;;;;;;5016690;28;20059;-65
2021/06/30 09:17:06;;;;;;;15.63;9.35;;;22.20;99.90;;;;;;5017460;28;20053;-66
2021/06/30 09:20:07;;;;;;;24.95;8.82;;;22.20;99.90;;;;;;5017423;28;20059;-64
2021/06/30 09:22:46;;;;;;;11.68;8.20;;;22.30;99.90;;;;;;5016139;28;20099;-66
2021/06/30 09:25:38;;;;;;;10.48;8.25;;;22.20;99.90;;;;;;5016642;28;20126;-67
2021/06/30 09:28:13;;;;;;;10.60;9.43;;;22.10;99.90;;;;;;5006266;28;20153;-65
2021/06/30 09:30:56;;;;;;;11.93;8.82;;;22.10;99.90;;;;;;5017867;28;20110;-68
2021/06/30 09:33:23;;;;;;;12.95;10.93;;;22.10;99.90;;;;;;5005950;28;20041;-66
2021/06/30 09:36:03;;;;;;;9.35;8.38;;;22.00;99.90;;;;;;5005047;28;20650;-67
2021/06/30 09:38:32;;;;;;;13.05;10.52;;;22.00;99.90;;;;;;5003374;28;20061;-69
2021/06/30 09:41:01;;;;;;;19.45;10.20;;;22.00;99.90;;;;;;5015902;28;20057;-65
2021/06/30 09:43:32;;;;;;;11.20;8.32;;;22.10;99.90;;;;;;5019902;28;20496;-66
2021/06/30 09:46:02;;;;;;;12.95;9.63;;;22.10;99.90;;;;;;5018996;28;20404;-66
2021/06/30 09:48:34;;;;;;;13.93;9.63;;;22.00;99.90;;;;;;5019613;28;20104;-68
2021/06/30 09:51:03;;;;;;;15.57;10.15;;;22.00;99.90;;;;;;5020863;28;20139;-64
2021/06/30 09:53:36;;;;;;;17.38;10.30;;;21.90;99.90;;;;;;5019070;28;20057;-68
2021/06/30 09:56:10;;;;;;;14.10;9.48;;;21.90;99.90;;;;;;5018957;28;20076;-67
2021/06/30 09:58:57;;;;;;;13.90;10.60;;;21.80;99.90;;;;;;5017990;28;20195;-67
2021/06/30 10:01:24;;;;;;;13.60;12.20;;;21.80;99.90;;;;;;5018026;28;20052;-69
2021/06/30 10:03:51;;;;;;;15.45;9.88;;;21.90;99.90;;;;;;5016624;28;20049;-67
2021/06/30 10:06:33;;;;;;;10.50;9.50;;;21.90;99.90;;;;;;5019442;28;20132;-65
2021/06/30 10:09:06;;;;;;;15.60;10.98;;;21.90;99.90;;;;;;5018469;28;20060;-63
2021/06/30 10:11:34;;;;;;;14.65;10.52;;;21.80;99.90;;;;;;5018812;28;20103;-65
2021/06/30 10:14:02;;;;;;;20.58;12.43;;;21.80;99.90;;;;;;5014729;28;20053;-65
2021/06/30 10:16:29;;;;;;;11.90;9.55;;;21.70;99.90;;;;;;5019538;28;20096;-68
2021/06/30 10:18:59;;;;;;;18.30;9.80;;;21.80;99.90;;;;;;5018779;28;21036;-68
2021/06/30 10:21:30;;;;;;;13.85;10.02;;;21.70;99.90;;;;;;5019432;28;20049;-65
2021/06/30 10:23:58;;;;;;;11.75;10.55;;;21.70;99.90;;;;;;5016963;28;20068;-69
2021/06/30 10:26:26;;;;;;;14.13;11.10;;;21.70;99.90;;;;;;5018777;28;20136;-65
2021/06/30 10:28:57;;;;;;;20.23;9.85;;;21.70;99.90;;;;;;5019142;28;20049;-66
2021/06/30 10:31:24;;;;;;;14.35;9.48;;;21.70;99.90;;;;;;5018683;28;20080;-67
2021/06/30 10:34:00;;;;;;;19.67;11.82;;;21.70;99.90;;;;;;5017761;28;20056;-65
2021/06/30 10:36:46;;;;;;;16.13;10.52;;;21.70;99.90;;;;;;5018246;28;20129;-66
2021/06/30 10:39:20;;;;;;;12.45;10.98;;;21.70;99.90;;;;;;5020022;28;20150;-68
2021/06/30 10:41:54;;;;;;;11.85;10.35;;;21.70;99.90;;;;;;5019039;28;20054;-64
2021/06/30 10:44:25;;;;;;;12.13;10.73;;;21.70;99.90;;;;;;5018493;28;20057;-68
2021/06/30 10:46:54;;;;;;;17.38;11.93;;;21.80;99.90;;;;;;5017948;28;20057;-66
2021/06/30 10:49:25;;;;;;;13.10;10.75;;;21.90;99.90;;;;;;5016931;28;20061;-65
2021/06/30 10:52:01;;;;;;;13.77;9.27;;;21.90;99.90;;;;;;5016281;28;20056;-66
2021/06/30 10:54:42;;;;;;;14.30;10.05;;;22.00;99.90;;;;;;5015528;28;20115;-64
2021/06/30 10:57:31;;;;;;;11.05;9.95;;;21.90;99.90;;;;;;5017526;28;20048;-68
2021/06/30 11:00:04;;;;;;;19.45;12.55;;;22.00;99.90;;;;;;5016253;28;21154;-64
2021/06/30 11:02:34;;;;;;;15.55;10.70;;;22.00;99.90;;;;;;5017470;28;20053;-67
2021/06/30 11:05:13;;;;;;;17.35;11.75;;;22.00;99.90;;;;;;5018400;28;20132;-65
2021/06/30 11:07:43;;;;;;;12.30;10.60;;;22.10;99.90;;;;;;5017608;28;21657;-67
2021/06/30 11:10:16;;;;;;;13.57;11.77;;;22.10;99.90;;;;;;5016773;28;20213;-69
2021/06/30 11:12:54;;;;;;;15.07;9.80;;;22.20;99.90;;;;;;5017736;28;20055;-64
2021/06/30 11:15:48;;;;;;;17.90;12.07;;;22.20;99.90;;;;;;5017563;28;20063;-65
2021/06/30 11:18:18;;;;;;;15.88;10.68;;;22.20;99.90;;;;;;5013794;28;20152;-66
2021/06/30 11:20:48;;;;;;;11.63;8.90;;;22.30;99.90;;;;;;5017136;28;20103;-68
2021/06/30 11:23:26;;;;;;;11.57;9.50;;;22.30;99.90;;;;;;5017704;28;20057;-66
2021/06/30 11:25:54;;;;;;;16.25;10.45;;;22.30;99.90;;;;;;5015639;28;20523;-68
2021/06/30 11:28:35;;;;;;;15.63;11.07;;;22.20;99.90;;;;;;5017497;28;20057;-64
2021/06/30 11:31:20;;;;;;;;;;;22.20;99.90;;;;;;5017243;28;20191;-66
2021/06/30 11:34:21;;;;;;;15.68;11.07;;;22.20;99.90;;;;;;5016811;28;19925;-67
2021/06/30 11:36:48;;;;;;;14.63;10.32;;;22.10;99.90;;;;;;5015947;28;20092;-65
2021/06/30 11:39:19;;;;;;;12.27;10.65;;;22.10;99.90;;;;;;5026050;28;20063;-66
2021/06/30 11:41:49;;;;;;;14.38;12.13;;;22.00;99.90;;;;;;5017461;28;20125;-67
2021/06/30 11:44:19;;;;;;;14.32;11.05;;;22.00;99.90;;;;;;5019793;28;20118;-67
2021/06/30 11:46:48;;;;;;;14.55;10.95;;;22.00;99.90;;;;;;5017266;28;20049;-68
2021/06/30 11:49:19;;;;;;;16.60;11.90;;;22.00;99.90;;;;;;5018103;28;20132;-66
2021/06/30 11:52:00;;;;;;;15.63;11.02;;;22.00;99.90;;;;;;5013232;28;20148;-69
2021/06/30 11:54:28;;;;;;;14.05;12.45;;;22.00;99.90;;;;;;5018434;28;20507;-66
2021/06/30 11:56:56;;;;;;;16.48;10.60;;;22.00;99.90;;;;;;5017918;28;20198;-65
2021/06/30 11:59:25;;;;;;;15.63;11.82;;;22.00;99.90;;;;;;5018607;28;20049;-67
2021/06/30 12:01:53;;;;;;;13.52;11.43;;;21.90;99.90;;;;;;5019158;28;20407;-65
2021/06/30 12:04:26;;;;;;;17.20;10.50;;;21.90;99.90;;;;;;5022087;28;20053;-66
2021/06/30 12:06:55;;;;;;;13.55;11.27;;;21.90;99.90;;;;;;5020699;28;20042;-66
2021/06/30 12:09:27;;;;;;;15.68;11.52;;;21.90;99.90;;;;;;5021467;28;20143;-67
2021/06/30 12:12:04;;;;;;;13.65;11.30;;;21.90;99.90;;;;;;5019361;28;20045;-69
2021/06/30 12:14:37;;;;;;;22.20;10.48;;;22.00;99.90;;;;;;5019759;28;20059;-66
2021/06/30 12:17:06;;;;;;;12.05;10.52;;;22.00;99.90;;;;;;5021099;28;20523;-65
2021/06/30 12:19:47;;;;;;;15.52;11.10;;;22.00;99.90;;;;;;5010809;28;20095;-65
2021/06/30 12:22:35;;;;;;;15.30;9.27;;;22.10;99.90;;;;;;5020190;28;20072;-65
2021/06/30 12:25:07;;;;;;;18.30;10.52;;;22.20;99.90;;;;;;5020474;28;20387;-64
2021/06/30 12:27:42;;;;;;;13.10;10.40;;;22.30;99.90;;;;;;5021167;28;20076;-65
2021/06/30 12:30:13;;;;;;;14.75;10.07;;;22.30;99.90;;;;;;5019289;28;20052;-67
2021/06/30 12:32:49;;;;;;;19.58;12.05;;;22.40;99.90;;;;;;5021405;28;20084;-66
2021/06/30 12:35:32;;;;;;;20.38;12.43;;;22.50;99.90;;;;;;5019346;28;20037;-68
2021/06/30 12:38:04;;;;;;;11.73;8.65;;;22.60;99.90;;;;;;5019411;28;20099;-64
2021/06/30 12:40:45;;;;;;;10.30;7.60;;;22.60;99.90;;;;;;5019956;28;20075;-65
2021/06/30 12:43:16;;;;;;;10.32;8.32;;;22.70;99.90;;;;;;5022674;28;20045;-64
2021/06/30 12:45:54;;;;;;;8.50;7.05;;;22.80;99.90;;;;;;5018853;28;20045;-67
2021/06/30 12:48:27;;;;;;;10.13;7.80;;;22.80;99.90;;;;;;5019878;28;20054;-67
2021/06/30 12:51:06;;;;;;;9.93;7.95;;;23.00;99.90;;;;;;5020894;28;20055;-66
2021/06/30 12:53:37;;;;;;;17.08;7.90;;;23.00;99.90;;;;;;5020393;28;22049;-65
2021/06/30 12:56:10;;;;;;;11.30;7.72;;;23.00;99.90;;;;;;5018623;28;20053;-66
2021/06/30 12:58:39;;;;;;;9.50;7.68;;;23.10;99.90;;;;;;5022138;28;20053;-66
2021/06/30 13:01:08;;;;;;;7.13;6.30;;;23.20;99.90;;;;;;5020703;28;20046;-65
2021/06/30 13:03:53;;;;;;;8.15;7.28;;;23.30;99.90;;;;;;5019369;28;20483;-68
2021/06/30 13:06:29;;;;;;;7.93;7.13;;;23.40;99.90;;;;;;5017956;28;20052;-65
2021/06/30 13:09:04;;;;;;;10.85;8.48;;;23.40;99.90;;;;;;5018888;28;20172;-65
2021/06/30 13:11:48;;;;;;;11.65;8.57;;;23.30;99.90;;;;;;5020596;28;20045;-65